Impacts METAR Board INFO
IDs:

KBOS - Boston/Logan Intl, MA, US

Updated at: 1757 UTC 17 Jan 2018
Potential Impact None Slight Moderate High
Time17/05Z 17/06Z 17/07Z 17/08Z 17/09Z 17/10Z 17/11Z 17/12Z 17/13Z 17/14Z 17/15Z 17/16Z 17/17Z
VIS10 10 10 10 10 10 2 1 1 0.25 1 3 1.5
CIG70 35 31 34 35 33 22 19 9 4 7 4 3
CoverOVCOVCOVCOVCOVCOVCOVCOVCOVCOVCOVCOVCOVC
FltCatVFRVFRVFRVFRVFRVFRIFRIFRIFRLIFRIFRLIFRLIFR
WX-------------SN BR-SN BR-SN BR-SN BR-SN BR-SN BR-SN BR
WDir17018016016015015090605070604010
WSpd5 5 3 5 5 4 3 3 4 4 5 5 6
WGst-- -- -- -- -- -- -- -- -- -- -- -- --
Raw hourly METARs
KBOS 170454Z 17005KT 10SM FEW034 OVC070 M01/M03 A3040 RMK AO2 SLP293 T10061028 400061067
KBOS 170554Z 18005KT 10SM BKN035 OVC070 00/M02 A3039 RMK AO2 SLP289 T00001022 10000 21006 56018
KBOS 170654Z 16003KT 10SM OVC031 00/M02 A3039 RMK AO2 SLP289 T00001022
KBOS 170754Z 16005KT 10SM OVC034 00/M02 A3038 RMK AO2 SLP287 T00001022
KBOS 170854Z 15005KT 10SM OVC035 00/M03 A3035 RMK AO2 SLP278 T00001028 58012
KBOS 170954Z 15004KT 10SM OVC033 00/M02 A3035 RMK AO2 SLP277 T00001022
KBOS 171054Z 09003KT 2SM -SN BR SCT009 SCT015 OVC022 00/M02 A3033 RMK AO2 SNB36 SLP271 P0000 T00001017
KBOS 171154Z 06003KT 1SM R04R/5500VP6000FT -SN BR FEW005 OVC019 00/M01 A3032 RMK AO2 SLP265 P0003 60003 70003 T00001006 10006 20000 56012
KBOS 171254Z 05004KT 1SM R04R/4000V6000FT -SN BR SCT003 OVC009 00/00 A3030 RMK AO2 SLP259 P0003 T00000000
KBOS 171354Z 07004KT 1/4SM R04R/4500VP6000FT -SN BR OVC004 00/00 A3029 RMK AO2 SFC VIS 1 1/4 SLP257 P0004 T00000000
KBOS 171454Z 06005KT 1SM R04R/5000V6000FT -SN BR SCT003 OVC007 01/00 A3028 RMK A02 SLP253 P0005 60012 T00060000 56012
KBOS 171603Z 04005KT 3SM -SN BR OVC004 01/01 A3025 RMK AO2 P0000 T00060006
KBOS 171654Z 01006KT 1 1/2SM R04R/4000VP6000FT -SN BR OVC003 01/00 A3020 RMK AO2 SLP227 P0001 T00060000